sensor_id;sensor_type;location;lat;lon;timestamp;temperature;humidity
18581;DHT22;9420;50.876;7.012;2024-03-17T00:00:24;5.69;89.56
18581;DHT22;9420;50.876;7.012;2024-03-17T00:02:50;5.93;88.92
18581;DHT22;9420;50.876;7.012;2024-03-17T00:05:19;5.91;88.99
18581;DHT22;9420;50.876;7.012;2024-03-17T00:07:44;5.87;89.06
18581;DHT22;9420;50.876;7.012;2024-03-17T00:10:11;5.81;89.22
18581;DHT22;9420;50.876;7.012;2024-03-17T00:12:37;5.81;89.28
18581;DHT22;9420;50.876;7.012;2024-03-17T00:15:05;5.85;89.12
18581;DHT22;9420;50.876;7.012;2024-03-17T00:17:32;5.76;89.11
18581;DHT22;9420;50.876;7.012;2024-03-17T00:19:59;5.59;89.48
18581;DHT22;9420;50.876;7.012;2024-03-17T00:22:28;5.50;89.71
18581;DHT22;9420;50.876;7.012;2024-03-17T00:24:55;5.46;89.70
18581;DHT22;9420;50.876;7.012;2024-03-17T00:27:21;5.36;89.79
18581;DHT22;9420;50.876;7.012;2024-03-17T00:29:48;5.63;89.46
18581;DHT22;9420;50.876;7.012;2024-03-17T00:32:13;5.58;89.65
18581;DHT22;9420;50.876;7.012;2024-03-17T00:34:41;5.63;89.66
18581;DHT22;9420;50.876;7.012;2024-03-17T00:37:07;5.83;89.23
18581;DHT22;9420;50.876;7.012;2024-03-17T00:39:35;5.87;89.07
18581;DHT22;9420;50.876;7.012;2024-03-17T00:42:01;5.74;89.21
18581;DHT22;9420;50.876;7.012;2024-03-17T00:44:27;5.62;89.53
18581;DHT22;9420;50.876;7.012;2024-03-17T00:46:53;5.71;89.20
18581;DHT22;9420;50.876;7.012;2024-03-17T00:49:20;5.74;89.19
18581;DHT22;9420;50.876;7.012;2024-03-17T00:51:46;5.77;89.12
18581;DHT22;9420;50.876;7.012;2024-03-17T00:54:16;5.67;89.17
18581;DHT22;9420;50.876;7.012;2024-03-17T00:56:44;5.56;89.19
18581;DHT22;9420;50.876;7.012;2024-03-17T00:59:11;5.42;89.53
18581;DHT22;9420;50.876;7.012;2024-03-17T01:01:36;5.43;89.47
18581;DHT22;9420;50.876;7.012;2024-03-17T01:04:03;5.32;89.49
18581;DHT22;9420;50.876;7.012;2024-03-17T01:06:29;5.21;89.75
18581;DHT22;9420;50.876;7.012;2024-03-17T01:08:57;5.22;89.78
18581;DHT22;9420;50.876;7.012;2024-03-17T01:11:23;5.32;89.62
18581;DHT22;9420;50.876;7.012;2024-03-17T01:13:51;5.38;89.43
18581;DHT22;9420;50.876;7.012;2024-03-17T01:16:17;5.40;89.44
18581;DHT22;9420;50.876;7.012;2024-03-17T01:18:43;5.39;89.67
18581;DHT22;9420;50.876;7.012;2024-03-17T01:21:11;5.49;89.41
18581;DHT22;9420;50.876;7.012;2024-03-17T01:23:37;5.49;89.39
18581;DHT22;9420;50.876;7.012;2024-03-17T01:26:03;5.50;89.55
18581;DHT22;9420;50.876;7.012;2024-03-17T01:28:30;5.58;89.62
18581;DHT22;9420;50.876;7.012;2024-03-17T01:30:58;5.59;89.64
18581;DHT22;9420;50.876;7.012;2024-03-17T01:33:24;5.56;89.68
18581;DHT22;9420;50.876;7.012;2024-03-17T01:35:51;5.53;89.40
18581;DHT22;9420;50.876;7.012;2024-03-17T01:38:16;5.59;89.40
18581;DHT22;9420;50.876;7.012;2024-03-17T01:40:43;5.59;89.36
18581;DHT22;9420;50.876;7.012;2024-03-17T01:43:10;5.66;89.25
18581;DHT22;9420;50.876;7.012;2024-03-17T01:45:37;5.58;89.21
18581;DHT22;9420;50.876;7.012;2024-03-17T01:48:10;5.50;89.33
18581;DHT22;9420;50.876;7.012;2024-03-17T01:50:39;5.56;89.60
18581;DHT22;9420;50.876;7.012;2024-03-17T01:53:06;5.55;89.57
18581;DHT22;9420;50.876;7.012;2024-03-17T01:55:35;5.49;89.24
18581;DHT22;9420;50.876;7.012;2024-03-17T01:58:02;5.42;89.09
18581;DHT22;9420;50.876;7.012;2024-03-17T02:00:29;5.38;89.18
18581;DHT22;9420;50.876;7.012;2024-03-17T02:02:56;5.42;89.57
18581;DHT22;9420;50.876;7.012;2024-03-17T02:05:27;5.48;89.29
18581;DHT22;9420;50.876;7.012;2024-03-17T02:07:54;5.42;89.05
18581;DHT22;9420;50.876;7.012;2024-03-17T02:10:20;5.42;89.13
18581;DHT22;9420;50.876;7.012;2024-03-17T02:12:47;5.45;89.22
18581;DHT22;9420;50.876;7.012;2024-03-17T02:15:13;5.43;88.96
18581;DHT22;9420;50.876;7.012;2024-03-17T02:17:39;5.43;89.12
18581;DHT22;9420;50.876;7.012;2024-03-17T02:20:06;5.40;89.26
18581;DHT22;9420;50.876;7.012;2024-03-17T02:22:34;5.32;89.36
18581;DHT22;9420;50.876;7.012;2024-03-17T02:25:01;5.32;89.41
18581;DHT22;9420;50.876;7.012;2024-03-17T02:27:28;5.28;89.87
18581;DHT22;9420;50.876;7.012;2024-03-17T02:29:54;5.32;89.68
18581;DHT22;9420;50.876;7.012;2024-03-17T02:32:20;5.38;89.50
18581;DHT22;9420;50.876;7.012;2024-03-17T02:34:48;5.36;89.11
18581;DHT22;9420;50.876;7.012;2024-03-17T02:37:15;5.32;89.10
18581;DHT22;9420;50.876;7.012;2024-03-17T02:39:42;5.29;89.19
18581;DHT22;9420;50.876;7.012;2024-03-17T02:42:10;5.38;89.21
18581;DHT22;9420;50.876;7.012;2024-03-17T02:44:38;5.25;89.16
18581;DHT22;9420;50.876;7.012;2024-03-17T02:47:06;5.25;89.14
18581;DHT22;9420;50.876;7.012;2024-03-17T02:49:35;5.21;89.19
18581;DHT22;9420;50.876;7.012;2024-03-17T02:52:06;5.11;89.36
18581;DHT22;9420;50.876;7.012;2024-03-17T02:54:33;5.11;89.08
18581;DHT22;9420;50.876;7.012;2024-03-17T02:57:02;5.11;89.20
18581;DHT22;9420;50.876;7.012;2024-03-17T02:59:29;5.02;89.08
18581;DHT22;9420;50.876;7.012;2024-03-17T03:01:56;4.97;89.24
18581;DHT22;9420;50.876;7.012;2024-03-17T03:04:23;4.88;89.23
18581;DHT22;9420;50.876;7.012;2024-03-17T03:06:50;4.92;89.26
18581;DHT22;9420;50.876;7.012;2024-03-17T03:09:16;4.84;89.13
18581;DHT22;9420;50.876;7.012;2024-03-17T03:11:51;4.87;89.45
18581;DHT22;9420;50.876;7.012;2024-03-17T03:14:19;4.90;89.34
18581;DHT22;9420;50.876;7.012;2024-03-17T03:16:46;4.95;89.29
18581;DHT22;9420;50.876;7.012;2024-03-17T03:19:13;4.92;89.44
18581;DHT22;9420;50.876;7.012;2024-03-17T03:21:39;4.95;89.30
18581;DHT22;9420;50.876;7.012;2024-03-17T03:24:06;4.95;89.41
18581;DHT22;9420;50.876;7.012;2024-03-17T03:26:33;4.95;89.43
18581;DHT22;9420;50.876;7.012;2024-03-17T03:28:59;4.94;89.47
18581;DHT22;9420;50.876;7.012;2024-03-17T03:31:28;4.87;89.43
18581;DHT22;9420;50.876;7.012;2024-03-17T03:33:54;4.84;89.61
18581;DHT22;9420;50.876;7.012;2024-03-17T03:36:22;4.83;89.65
18581;DHT22;9420;50.876;7.012;2024-03-17T03:38:49;4.77;89.58
18581;DHT22;9420;50.876;7.012;2024-03-17T03:41:15;4.67;90.08
18581;DHT22;9420;50.876;7.012;2024-03-17T03:43:42;4.61;90.06
18581;DHT22;9420;50.876;7.012;2024-03-17T03:46:11;4.76;90.06
18581;DHT22;9420;50.876;7.012;2024-03-17T03:48:39;4.77;89.61
18581;DHT22;9420;50.876;7.012;2024-03-17T03:51:06;4.77;89.91
18581;DHT22;9420;50.876;7.012;2024-03-17T03:53:35;4.74;89.73
18581;DHT22;9420;50.876;7.012;2024-03-17T03:56:03;4.73;89.52
18581;DHT22;9420;50.876;7.012;2024-03-17T03:58:31;4.73;89.46
18581;DHT22;9420;50.876;7.012;2024-03-17T04:00:58;4.76;89.45
18581;DHT22;9420;50.876;7.012;2024-03-17T04:03:25;4.67;89.45
18581;DHT22;9420;50.876;7.012;2024-03-17T04:06:02;4.69;89.52
18581;DHT22;9420;50.876;7.012;2024-03-17T04:08:30;4.64;89.68
18581;DHT22;9420;50.876;7.012;2024-03-17T04:10:57;4.64;89.55
18581;DHT22;9420;50.876;7.012;2024-03-17T04:13:24;4.67;89.42
18581;DHT22;9420;50.876;7.012;2024-03-17T04:15:50;4.61;89.86
18581;DHT22;9420;50.876;7.012;2024-03-17T04:18:22;4.64;89.48
18581;DHT22;9420;50.876;7.012;2024-03-17T04:20:50;4.67;89.35
18581;DHT22;9420;50.876;7.012;2024-03-17T04:23:19;4.67;89.34
18581;DHT22;9420;50.876;7.012;2024-03-17T04:25:46;4.66;89.38
18581;DHT22;9420;50.876;7.012;2024-03-17T04:28:13;4.76;89.21
18581;DHT22;9420;50.876;7.012;2024-03-17T04:30:40;4.76;89.55
18581;DHT22;9420;50.876;7.012;2024-03-17T04:33:07;4.79;89.40
18581;DHT22;9420;50.876;7.012;2024-03-17T04:35:35;4.84;89.32
18581;DHT22;9420;50.876;7.012;2024-03-17T04:38:02;4.95;89.17
18581;DHT22;9420;50.876;7.012;2024-03-17T04:40:30;4.97;89.44
18581;DHT22;9420;50.876;7.012;2024-03-17T04:42:57;5.01;89.43
18581;DHT22;9420;50.876;7.012;2024-03-17T04:45:23;5.05;89.45
18581;DHT22;9420;50.876;7.012;2024-03-17T04:47:51;5.11;89.35
18581;DHT22;9420;50.876;7.012;2024-03-17T04:50:20;5.07;89.16
18581;DHT22;9420;50.876;7.012;2024-03-17T04:52:47;5.10;89.24
18581;DHT22;9420;50.876;7.012;2024-03-17T04:55:15;5.02;89.18
18581;DHT22;9420;50.876;7.012;2024-03-17T04:57:43;5.04;89.23
18581;DHT22;9420;50.876;7.012;2024-03-17T05:00:11;5.14;89.20
18581;DHT22;9420;50.876;7.012;2024-03-17T05:02:39;5.25;88.93
18581;DHT22;9420;50.876;7.012;2024-03-17T05:05:06;5.27;88.89
18581;DHT22;9420;50.876;7.012;2024-03-17T05:07:33;5.27;88.77
18581;DHT22;9420;50.876;7.012;2024-03-17T05:10:00;5.31;88.59
18581;DHT22;9420;50.876;7.012;2024-03-17T05:12:26;5.17;88.88
18581;DHT22;9420;50.876;7.012;2024-03-17T05:14:55;5.17;89.07
18581;DHT22;9420;50.876;7.012;2024-03-17T05:17:21;5.12;88.99
18581;DHT22;9420;50.876;7.012;2024-03-17T05:19:48;5.17;88.94
18581;DHT22;9420;50.876;7.012;2024-03-17T05:22:15;5.14;88.86
18581;DHT22;9420;50.876;7.012;2024-03-17T05:24:41;5.12;89.00
18581;DHT22;9420;50.876;7.012;2024-03-17T05:27:08;5.01;88.83
18581;DHT22;9420;50.876;7.012;2024-03-17T05:29:34;5.11;88.60
18581;DHT22;9420;50.876;7.012;2024-03-17T05:32:04;5.00;88.93
18581;DHT22;9420;50.876;7.012;2024-03-17T05:34:31;4.80;89.34
18581;DHT22;9420;50.876;7.012;2024-03-17T05:36:59;4.74;89.36
18581;DHT22;9420;50.876;7.012;2024-03-17T05:39:27;4.64;89.54
18581;DHT22;9420;50.876;7.012;2024-03-17T05:41:54;4.64;89.60
18581;DHT22;9420;50.876;7.012;2024-03-17T05:44:20;4.81;89.19
18581;DHT22;9420;50.876;7.012;2024-03-17T05:46:47;4.79;88.96
18581;DHT22;9420;50.876;7.012;2024-03-17T05:49:15;4.71;89.10
18581;DHT22;9420;50.876;7.012;2024-03-17T05:51:43;4.61;89.41
18581;DHT22;9420;50.876;7.012;2024-03-17T05:54:10;4.54;89.30
18581;DHT22;9420;50.876;7.012;2024-03-17T05:56:37;4.60;89.33
18581;DHT22;9420;50.876;7.012;2024-03-17T05:59:04;4.52;89.35
18581;DHT22;9420;50.876;7.012;2024-03-17T06:01:31;4.66;88.95
18581;DHT22;9420;50.876;7.012;2024-03-17T06:03:58;4.61;89.05
18581;DHT22;9420;50.876;7.012;2024-03-17T06:06:26;4.64;88.88
18581;DHT22;9420;50.876;7.012;2024-03-17T06:08:53;4.63;88.77
18581;DHT22;9420;50.876;7.012;2024-03-17T06:11:20;4.57;88.74
18581;DHT22;9420;50.876;7.012;2024-03-17T06:13:46;4.54;88.87
18581;DHT22;9420;50.876;7.012;2024-03-17T06:16:13;4.52;88.96
18581;DHT22;9420;50.876;7.012;2024-03-17T06:18:39;4.43;89.10
18581;DHT22;9420;50.876;7.012;2024-03-17T06:21:06;4.43;89.15
18581;DHT22;9420;50.876;7.012;2024-03-17T06:23:36;4.45;89.24
18581;DHT22;9420;50.876;7.012;2024-03-17T06:26:02;4.38;89.17
18581;DHT22;9420;50.876;7.012;2024-03-17T06:28:31;4.42;89.35
18581;DHT22;9420;50.876;7.012;2024-03-17T06:30:58;4.26;89.39
18581;DHT22;9420;50.876;7.012;2024-03-17T06:33:26;4.21;89.45
18581;DHT22;9420;50.876;7.012;2024-03-17T06:35:54;4.18;89.83
18581;DHT22;9420;50.876;7.012;2024-03-17T06:38:22;4.28;89.76
18581;DHT22;9420;50.876;7.012;2024-03-17T06:40:50;4.45;89.45
18581;DHT22;9420;50.876;7.012;2024-03-17T06:43:19;4.63;89.60
18581;DHT22;9420;50.876;7.012;2024-03-17T06:45:54;4.79;89.64
18581;DHT22;9420;50.876;7.012;2024-03-17T06:48:21;4.90;89.61
18581;DHT22;9420;50.876;7.012;2024-03-17T06:50:49;4.91;89.63
18581;DHT22;9420;50.876;7.012;2024-03-17T06:53:17;5.04;89.25
18581;DHT22;9420;50.876;7.012;2024-03-17T06:55:44;5.12;89.02
18581;DHT22;9420;50.876;7.012;2024-03-17T06:58:20;5.19;88.74
18581;DHT22;9420;50.876;7.012;2024-03-17T07:00:55;5.21;88.77
18581;DHT22;9420;50.876;7.012;2024-03-17T07:03:23;5.27;88.81
18581;DHT22;9420;50.876;7.012;2024-03-17T07:05:52;5.21;88.96
18581;DHT22;9420;50.876;7.012;2024-03-17T07:08:19;5.31;89.00
18581;DHT22;9420;50.876;7.012;2024-03-17T07:10:58;5.53;88.22
18581;DHT22;9420;50.876;7.012;2024-03-17T07:13:28;5.71;87.99
18581;DHT22;9420;50.876;7.012;2024-03-17T07:15:54;5.79;87.57
18581;DHT22;9420;50.876;7.012;2024-03-17T07:18:21;5.97;86.83
18581;DHT22;9420;50.876;7.012;2024-03-17T07:20:48;6.18;86.86
18581;DHT22;9420;50.876;7.012;2024-03-17T07:23:14;6.41;86.33
18581;DHT22;9420;50.876;7.012;2024-03-17T07:25:42;6.55;86.15
18581;DHT22;9420;50.876;7.012;2024-03-17T07:28:09;6.53;86.36
18581;DHT22;9420;50.876;7.012;2024-03-17T07:30:37;6.82;85.49
18581;DHT22;9420;50.876;7.012;2024-03-17T07:33:04;6.75;85.20
18581;DHT22;9420;50.876;7.012;2024-03-17T07:35:30;7.00;84.75
18581;DHT22;9420;50.876;7.012;2024-03-17T07:37:57;7.15;84.94
18581;DHT22;9420;50.876;7.012;2024-03-17T07:40:24;7.18;84.47
18581;DHT22;9420;50.876;7.012;2024-03-17T07:42:50;7.31;84.44
18581;DHT22;9420;50.876;7.012;2024-03-17T07:45:18;7.38;85.21
18581;DHT22;9420;50.876;7.012;2024-03-17T07:47:46;7.41;84.81
18581;DHT22;9420;50.876;7.012;2024-03-17T07:50:13;7.64;85.15
18581;DHT22;9420;50.876;7.012;2024-03-17T07:52:41;7.59;83.86
18581;DHT22;9420;50.876;7.012;2024-03-17T07:55:11;7.75;83.77
18581;DHT22;9420;50.876;7.012;2024-03-17T07:57:47;7.65;84.21
18581;DHT22;9420;50.876;7.012;2024-03-17T08:00:14;7.69;84.03
18581;DHT22;9420;50.876;7.012;2024-03-17T08:02:42;7.97;83.61
18581;DHT22;9420;50.876;7.012;2024-03-17T08:05:12;7.92;83.69
18581;DHT22;9420;50.876;7.012;2024-03-17T08:07:39;8.07;83.05
18581;DHT22;9420;50.876;7.012;2024-03-17T08:10:07;8.20;82.86
18581;DHT22;9420;50.876;7.012;2024-03-17T08:12:34;8.30;82.56
18581;DHT22;9420;50.876;7.012;2024-03-17T08:15:00;8.51;82.79
18581;DHT22;9420;50.876;7.012;2024-03-17T08:17:27;8.45;82.11
18581;DHT22;9420;50.876;7.012;2024-03-17T08:19:54;8.60;82.14
18581;DHT22;9420;50.876;7.012;2024-03-17T08:22:22;8.71;82.84
18581;DHT22;9420;50.876;7.012;2024-03-17T08:24:50;8.78;82.97
18581;DHT22;9420;50.876;7.012;2024-03-17T08:27:17;8.98;82.71
18581;DHT22;9420;50.876;7.012;2024-03-17T08:29:44;8.99;82.09
18581;DHT22;9420;50.876;7.012;2024-03-17T08:32:11;9.06;82.13
18581;DHT22;9420;50.876;7.012;2024-03-17T08:34:40;8.96;82.34
18581;DHT22;9420;50.876;7.012;2024-03-17T08:37:06;9.00;81.92
18581;DHT22;9420;50.876;7.012;2024-03-17T08:39:35;9.20;81.73
18581;DHT22;9420;50.876;7.012;2024-03-17T08:42:02;9.26;81.30
18581;DHT22;9420;50.876;7.012;2024-03-17T08:44:29;9.54;81.30
18581;DHT22;9420;50.876;7.012;2024-03-17T08:46:55;9.60;81.00
18581;DHT22;9420;50.876;7.012;2024-03-17T08:49:23;9.91;80.14
18581;DHT22;9420;50.876;7.012;2024-03-17T08:51:51;9.95;80.00
18581;DHT22;9420;50.876;7.012;2024-03-17T08:54:18;10.03;79.81
18581;DHT22;9420;50.876;7.012;2024-03-17T08:56:46;10.05;80.64
18581;DHT22;9420;50.876;7.012;2024-03-17T08:59:13;10.28;80.36
18581;DHT22;9420;50.876;7.012;2024-03-17T09:01:40;10.36;79.45
18581;DHT22;9420;50.876;7.012;2024-03-17T09:04:06;10.35;78.90
18581;DHT22;9420;50.876;7.012;2024-03-17T09:06:36;10.30;79.10
18581;DHT22;9420;50.876;7.012;2024-03-17T09:09:03;10.52;77.87
18581;DHT22;9420;50.876;7.012;2024-03-17T09:11:31;10.60;78.14
18581;DHT22;9420;50.876;7.012;2024-03-17T09:13:59;10.61;78.02
18581;DHT22;9420;50.876;7.012;2024-03-17T09:16:26;10.94;77.73
18581;DHT22;9420;50.876;7.012;2024-03-17T09:18:55;10.98;76.56
18581;DHT22;9420;50.876;7.012;2024-03-17T09:21:22;11.10;78.18
18581;DHT22;9420;50.876;7.012;2024-03-17T09:23:49;11.18;78.32
18581;DHT22;9420;50.876;7.012;2024-03-17T09:26:16;11.15;76.55
18581;DHT22;9420;50.876;7.012;2024-03-17T09:28:43;11.18;77.16
18581;DHT22;9420;50.876;7.012;2024-03-17T09:31:11;11.39;78.01
18581;DHT22;9420;50.876;7.012;2024-03-17T09:33:39;11.55;76.99
18581;DHT22;9420;50.876;7.012;2024-03-17T09:36:06;11.36;75.61
18581;DHT22;9420;50.876;7.012;2024-03-17T09:38:34;11.31;75.50
18581;DHT22;9420;50.876;7.012;2024-03-17T09:41:01;11.33;76.75
18581;DHT22;9420;50.876;7.012;2024-03-17T09:43:28;11.73;75.84
18581;DHT22;9420;50.876;7.012;2024-03-17T09:45:55;11.77;75.37
18581;DHT22;9420;50.876;7.012;2024-03-17T09:48:26;11.87;75.06
18581;DHT22;9420;50.876;7.012;2024-03-17T09:50:55;12.21;75.41
18581;DHT22;9420;50.876;7.012;2024-03-17T09:53:24;12.25;73.04
18581;DHT22;9420;50.876;7.012;2024-03-17T09:55:52;12.41;73.40
18581;DHT22;9420;50.876;7.012;2024-03-17T09:58:19;12.32;73.78
18581;DHT22;9420;50.876;7.012;2024-03-17T10:00:46;12.44;73.16
18581;DHT22;9420;50.876;7.012;2024-03-17T10:03:42;12.30;73.51
18581;DHT22;9420;50.876;7.012;2024-03-17T10:06:10;12.48;73.66
18581;DHT22;9420;50.876;7.012;2024-03-17T10:08:41;12.53;72.99
18581;DHT22;9420;50.876;7.012;2024-03-17T10:11:08;12.93;73.41
18581;DHT22;9420;50.876;7.012;2024-03-17T10:13:34;12.96;71.17
18581;DHT22;9420;50.876;7.012;2024-03-17T10:16:01;12.82;73.89
18581;DHT22;9420;50.876;7.012;2024-03-17T10:18:28;12.53;72.29
18581;DHT22;9420;50.876;7.012;2024-03-17T10:20:56;12.85;72.35
18581;DHT22;9420;50.876;7.012;2024-03-17T10:23:24;12.92;72.21
18581;DHT22;9420;50.876;7.012;2024-03-17T10:25:52;12.99;71.69
18581;DHT22;9420;50.876;7.012;2024-03-17T10:28:19;13.30;71.75
18581;DHT22;9420;50.876;7.012;2024-03-17T10:30:57;13.43;70.63
18581;DHT22;9420;50.876;7.012;2024-03-17T10:33:26;13.27;70.15
18581;DHT22;9420;50.876;7.012;2024-03-17T10:36:02;13.64;70.34
18581;DHT22;9420;50.876;7.012;2024-03-17T10:38:31;13.57;72.51
18581;DHT22;9420;50.876;7.012;2024-03-17T10:41:00;13.53;71.72
18581;DHT22;9420;50.876;7.012;2024-03-17T10:43:28;13.59;70.83
18581;DHT22;9420;50.876;7.012;2024-03-17T10:45:57;13.93;70.35
18581;DHT22;9420;50.876;7.012;2024-03-17T10:48:30;13.99;69.77
18581;DHT22;9420;50.876;7.012;2024-03-17T10:51:01;14.13;68.92
18581;DHT22;9420;50.876;7.012;2024-03-17T10:53:29;14.19;70.07
18581;DHT22;9420;50.876;7.012;2024-03-17T10:56:04;14.74;68.86
18581;DHT22;9420;50.876;7.012;2024-03-17T10:58:34;14.56;68.00
18581;DHT22;9420;50.876;7.012;2024-03-17T11:01:02;14.41;69.30
18581;DHT22;9420;50.876;7.012;2024-03-17T11:03:31;15.11;68.27
18581;DHT22;9420;50.876;7.012;2024-03-17T11:05:59;14.98;66.78
18581;DHT22;9420;50.876;7.012;2024-03-17T11:08:31;15.32;67.19
18581;DHT22;9420;50.876;7.012;2024-03-17T11:11:01;16.01;64.86
18581;DHT22;9420;50.876;7.012;2024-03-17T11:13:32;17.36;62.40
18581;DHT22;9420;50.876;7.012;2024-03-17T11:16:00;17.75;58.45
18581;DHT22;9420;50.876;7.012;2024-03-17T11:18:37;18.59;57.96
18581;DHT22;9420;50.876;7.012;2024-03-17T11:24:00;19.57;55.93
18581;DHT22;9420;50.876;7.012;2024-03-17T11:26:28;19.34;55.25
18581;DHT22;9420;50.876;7.012;2024-03-17T11:28:55;20.26;54.04
18581;DHT22;9420;50.876;7.012;2024-03-17T11:31:42;21.02;53.44
18581;DHT22;9420;50.876;7.012;2024-03-17T11:34:30;21.96;50.73
18581;DHT22;9420;50.876;7.012;2024-03-17T11:36:57;21.22;50.70
18581;DHT22;9420;50.876;7.012;2024-03-17T11:39:47;19.24;55.36
18581;DHT22;9420;50.876;7.012;2024-03-17T11:42:16;18.16;58.85
18581;DHT22;9420;50.876;7.012;2024-03-17T11:44:43;17.45;60.72
18581;DHT22;9420;50.876;7.012;2024-03-17T11:47:10;17.14;60.81
18581;DHT22;9420;50.876;7.012;2024-03-17T11:49:37;16.42;63.41
18581;DHT22;9420;50.876;7.012;2024-03-17T11:52:12;16.19;62.84
18581;DHT22;9420;50.876;7.012;2024-03-17T11:54:39;16.51;62.83
18581;DHT22;9420;50.876;7.012;2024-03-17T11:57:10;16.09;64.28
18581;DHT22;9420;50.876;7.012;2024-03-17T11:59:37;16.01;63.46
18581;DHT22;9420;50.876;7.012;2024-03-17T12:02:09;16.32;64.17
18581;DHT22;9420;50.876;7.012;2024-03-17T12:04:40;16.60;63.22
18581;DHT22;9420;50.876;7.012;2024-03-17T12:07:11;16.56;62.28
18581;DHT22;9420;50.876;7.012;2024-03-17T12:09:38;16.36;62.02
18581;DHT22;9420;50.876;7.012;2024-03-17T12:12:06;16.39;62.95
18581;DHT22;9420;50.876;7.012;2024-03-17T12:14:41;16.77;62.13
18581;DHT22;9420;50.876;7.012;2024-03-17T12:17:08;17.08;61.09
18581;DHT22;9420;50.876;7.012;2024-03-17T12:19:35;17.48;59.43
18581;DHT22;9420;50.876;7.012;2024-03-17T12:22:04;17.68;59.05
18581;DHT22;9420;50.876;7.012;2024-03-17T12:24:32;16.96;61.94
18581;DHT22;9420;50.876;7.012;2024-03-17T12:26:59;17.35;60.26
18581;DHT22;9420;50.876;7.012;2024-03-17T12:29:27;17.68;59.81
18581;DHT22;9420;50.876;7.012;2024-03-17T12:31:57;17.36;61.77
18581;DHT22;9420;50.876;7.012;2024-03-17T12:34:25;16.93;61.57
18581;DHT22;9420;50.876;7.012;2024-03-17T12:36:52;16.26;63.52
18581;DHT22;9420;50.876;7.012;2024-03-17T12:39:20;17.07;61.72
18581;DHT22;9420;50.876;7.012;2024-03-17T12:42:01;18.00;60.72
18581;DHT22;9420;50.876;7.012;2024-03-17T12:44:27;17.97;59.86
18581;DHT22;9420;50.876;7.012;2024-03-17T12:46:58;18.29;58.09
18581;DHT22;9420;50.876;7.012;2024-03-17T12:49:27;18.17;58.19
18581;DHT22;9420;50.876;7.012;2024-03-17T12:51:53;17.27;60.44
18581;DHT22;9420;50.876;7.012;2024-03-17T12:54:21;16.52;63.36
18581;DHT22;9420;50.876;7.012;2024-03-17T12:56:48;16.73;62.62
18581;DHT22;9420;50.876;7.012;2024-03-17T12:59:40;16.70;61.14
18581;DHT22;9420;50.876;7.012;2024-03-17T13:02:25;16.69;61.48
18581;DHT22;9420;50.876;7.012;2024-03-17T13:05:20;16.57;61.08
18581;DHT22;9420;50.876;7.012;2024-03-17T13:07:47;16.36;64.04
18581;DHT22;9420;50.876;7.012;2024-03-17T13:10:14;16.38;63.13
18581;DHT22;9420;50.876;7.012;2024-03-17T13:12:41;16.75;62.94
18581;DHT22;9420;50.876;7.012;2024-03-17T13:15:12;16.51;64.62
18581;DHT22;9420;50.876;7.012;2024-03-17T13:17:40;16.51;62.01
18581;DHT22;9420;50.876;7.012;2024-03-17T13:20:13;16.15;64.54
18581;DHT22;9420;50.876;7.012;2024-03-17T13:22:40;16.14;64.04
18581;DHT22;9420;50.876;7.012;2024-03-17T13:25:13;15.87;64.25
18581;DHT22;9420;50.876;7.012;2024-03-17T13:27:41;15.71;64.49
18581;DHT22;9420;50.876;7.012;2024-03-17T13:30:11;15.80;65.59
18581;DHT22;9420;50.876;7.012;2024-03-17T13:32:39;15.69;65.20
18581;DHT22;9420;50.876;7.012;2024-03-17T13:35:14;15.56;64.55
18581;DHT22;9420;50.876;7.012;2024-03-17T13:37:41;15.56;64.46
18581;DHT22;9420;50.876;7.012;2024-03-17T13:40:08;15.28;65.53
18581;DHT22;9420;50.876;7.012;2024-03-17T13:42:37;15.13;66.08
18581;DHT22;9420;50.876;7.012;2024-03-17T13:45:05;15.12;66.93
18581;DHT22;9420;50.876;7.012;2024-03-17T13:47:32;15.18;67.29
18581;DHT22;9420;50.876;7.012;2024-03-17T13:50:00;15.06;68.33
18581;DHT22;9420;50.876;7.012;2024-03-17T13:52:31;15.13;68.58
18581;DHT22;9420;50.876;7.012;2024-03-17T13:54:58;15.19;67.94
18581;DHT22;9420;50.876;7.012;2024-03-17T13:57:25;15.08;68.26
18581;DHT22;9420;50.876;7.012;2024-03-17T13:59:51;15.13;67.39
18581;DHT22;9420;50.876;7.012;2024-03-17T14:02:18;15.13;68.15
18581;DHT22;9420;50.876;7.012;2024-03-17T14:04:45;15.20;68.75
18581;DHT22;9420;50.876;7.012;2024-03-17T14:07:13;14.92;69.49
18581;DHT22;9420;50.876;7.012;2024-03-17T14:09:39;14.95;69.25
18581;DHT22;9420;50.876;7.012;2024-03-17T14:12:07;15.06;67.96
18581;DHT22;9420;50.876;7.012;2024-03-17T14:14:34;15.02;66.25
18581;DHT22;9420;50.876;7.012;2024-03-17T14:17:00;14.92;68.20
18581;DHT22;9420;50.876;7.012;2024-03-17T14:19:27;15.05;69.31
18581;DHT22;9420;50.876;7.012;2024-03-17T14:21:53;15.43;67.43
18581;DHT22;9420;50.876;7.012;2024-03-17T14:24:22;15.76;66.12
18581;DHT22;9420;50.876;7.012;2024-03-17T14:26:48;16.01;65.38
18581;DHT22;9420;50.876;7.012;2024-03-17T14:29:15;15.91;66.15
18581;DHT22;9420;50.876;7.012;2024-03-17T14:31:43;15.98;64.76
18581;DHT22;9420;50.876;7.012;2024-03-17T14:34:11;16.28;64.58
18581;DHT22;9420;50.876;7.012;2024-03-17T14:36:37;16.52;64.29
18581;DHT22;9420;50.876;7.012;2024-03-17T14:39:04;16.63;63.96
18581;DHT22;9420;50.876;7.012;2024-03-17T14:41:34;16.59;63.09
18581;DHT22;9420;50.876;7.012;2024-03-17T14:44:02;16.93;63.54
18581;DHT22;9420;50.876;7.012;2024-03-17T14:46:29;17.38;62.25
18581;DHT22;9420;50.876;7.012;2024-03-17T14:48:57;19.64;57.97
18581;DHT22;9420;50.876;7.012;2024-03-17T14:51:24;19.65;57.04
18581;DHT22;9420;50.876;7.012;2024-03-17T14:53:50;19.24;57.77
18581;DHT22;9420;50.876;7.012;2024-03-17T14:56:18;20.64;54.05
18581;DHT22;9420;50.876;7.012;2024-03-17T14:58:46;23.78;49.66
18581;DHT22;9420;50.876;7.012;2024-03-17T15:01:13;25.07;46.10
18581;DHT22;9420;50.876;7.012;2024-03-17T15:03:39;26.01;43.58
18581;DHT22;9420;50.876;7.012;2024-03-17T15:06:11;25.56;44.09
18581;DHT22;9420;50.876;7.012;2024-03-17T15:08:37;24.99;44.88
18581;DHT22;9420;50.876;7.012;2024-03-17T15:11:04;26.56;43.22
18581;DHT22;9420;50.876;7.012;2024-03-17T15:13:33;25.28;44.46
18581;DHT22;9420;50.876;7.012;2024-03-17T15:16:01;23.98;46.49
18581;DHT22;9420;50.876;7.012;2024-03-17T15:18:29;23.60;48.42
18581;DHT22;9420;50.876;7.012;2024-03-17T15:20:56;24.76;45.17
18581;DHT22;9420;50.876;7.012;2024-03-17T15:23:23;25.07;43.54
18581;DHT22;9420;50.876;7.012;2024-03-17T15:25:59;24.49;45.50
18581;DHT22;9420;50.876;7.012;2024-03-17T15:28:25;24.88;43.85
18581;DHT22;9420;50.876;7.012;2024-03-17T15:30:52;24.81;46.02
18581;DHT22;9420;50.876;7.012;2024-03-17T15:33:20;23.07;47.16
18581;DHT22;9420;50.876;7.012;2024-03-17T15:35:46;20.80;53.93
18581;DHT22;9420;50.876;7.012;2024-03-17T15:38:14;19.31;56.00
18581;DHT22;9420;50.876;7.012;2024-03-17T15:40:41;18.40;57.36
18581;DHT22;9420;50.876;7.012;2024-03-17T15:43:09;17.39;59.03
18581;DHT22;9420;50.876;7.012;2024-03-17T15:45:36;17.20;60.24
18581;DHT22;9420;50.876;7.012;2024-03-17T15:48:04;16.90;61.71
18581;DHT22;9420;50.876;7.012;2024-03-17T15:50:32;16.94;61.56
18581;DHT22;9420;50.876;7.012;2024-03-17T15:53:00;16.66;62.09
18581;DHT22;9420;50.876;7.012;2024-03-17T15:55:28;16.24;63.85
18581;DHT22;9420;50.876;7.012;2024-03-17T15:57:55;16.36;64.22
18581;DHT22;9420;50.876;7.012;2024-03-17T16:00:22;16.63;62.96
18581;DHT22;9420;50.876;7.012;2024-03-17T16:02:48;16.65;62.97